sensor_id;sensor_type;location;lat;lon;timestamp;temperature;humidity
24636;DHT22;12772;49.794;10.024;2022-07-05T00:00:42;22.50;29.80
24636;DHT22;12772;49.794;10.024;2022-07-05T00:04:45;22.40;29.70
24636;DHT22;12772;49.794;10.024;2022-07-05T00:08:47;22.40;29.70
24636;DHT22;12772;49.794;10.024;2022-07-05T00:12:49;22.30;29.60
24636;DHT22;12772;49.794;10.024;2022-07-05T00:16:51;22.30;29.60
24636;DHT22;12772;49.794;10.024;2022-07-05T00:20:54;22.20;29.50
24636;DHT22;12772;49.794;10.024;2022-07-05T00:24:56;22.10;29.60
24636;DHT22;12772;49.794;10.024;2022-07-05T00:28:58;21.80;30.10
24636;DHT22;12772;49.794;10.024;2022-07-05T00:33:00;21.80;30.70
24636;DHT22;12772;49.794;10.024;2022-07-05T00:37:02;21.70;30.80
24636;DHT22;12772;49.794;10.024;2022-07-05T00:41:05;21.70;30.90
24636;DHT22;12772;49.794;10.024;2022-07-05T00:45:08;21.70;31.00
24636;DHT22;12772;49.794;10.024;2022-07-05T00:49:10;21.70;31.20
24636;DHT22;12772;49.794;10.024;2022-07-05T00:53:12;21.60;31.10
24636;DHT22;12772;49.794;10.024;2022-07-05T00:57:15;21.50;31.00
24636;DHT22;12772;49.794;10.024;2022-07-05T01:01:18;21.50;31.20
24636;DHT22;12772;49.794;10.024;2022-07-05T01:05:21;21.40;31.00
24636;DHT22;12772;49.794;10.024;2022-07-05T01:09:23;21.30;30.20
24636;DHT22;12772;49.794;10.024;2022-07-05T01:13:26;21.10;30.20
24636;DHT22;12772;49.794;10.024;2022-07-05T01:17:29;20.90;30.70
24636;DHT22;12772;49.794;10.024;2022-07-05T01:21:33;20.90;30.70
24636;DHT22;12772;49.794;10.024;2022-07-05T01:25:37;20.90;31.00
24636;DHT22;12772;49.794;10.024;2022-07-05T01:29:40;20.80;31.20
24636;DHT22;12772;49.794;10.024;2022-07-05T01:33:42;20.80;31.40
24636;DHT22;12772;49.794;10.024;2022-07-05T01:37:44;20.80;31.60
24636;DHT22;12772;49.794;10.024;2022-07-05T01:41:48;20.80;31.80
24636;DHT22;12772;49.794;10.024;2022-07-05T01:45:50;20.90;32.10
24636;DHT22;12772;49.794;10.024;2022-07-05T01:49:54;20.80;32.10
24636;DHT22;12772;49.794;10.024;2022-07-05T01:53:59;20.80;32.10
24636;DHT22;12772;49.794;10.024;2022-07-05T01:58:01;20.70;32.10
24636;DHT22;12772;49.794;10.024;2022-07-05T02:02:05;20.70;32.30
24636;DHT22;12772;49.794;10.024;2022-07-05T02:06:07;20.70;32.50
24636;DHT22;12772;49.794;10.024;2022-07-05T02:10:11;20.60;33.00
24636;DHT22;12772;49.794;10.024;2022-07-05T02:14:13;20.70;33.10
24636;DHT22;12772;49.794;10.024;2022-07-05T02:18:15;20.60;32.90
24636;DHT22;12772;49.794;10.024;2022-07-05T02:22:17;20.50;33.00
24636;DHT22;12772;49.794;10.024;2022-07-05T02:26:19;20.50;33.20
24636;DHT22;12772;49.794;10.024;2022-07-05T02:30:21;20.50;33.40
24636;DHT22;12772;49.794;10.024;2022-07-05T02:34:24;20.40;33.40
24636;DHT22;12772;49.794;10.024;2022-07-05T02:38:26;20.40;33.60
24636;DHT22;12772;49.794;10.024;2022-07-05T02:42:28;20.40;33.50
24636;DHT22;12772;49.794;10.024;2022-07-05T02:46:30;20.40;33.60
24636;DHT22;12772;49.794;10.024;2022-07-05T02:50:32;20.30;34.00
24636;DHT22;12772;49.794;10.024;2022-07-05T02:54:34;20.20;34.30
24636;DHT22;12772;49.794;10.024;2022-07-05T02:58:37;20.10;34.20
24636;DHT22;12772;49.794;10.024;2022-07-05T03:02:40;20.10;34.20
24636;DHT22;12772;49.794;10.024;2022-07-05T03:06:42;19.90;34.00
24636;DHT22;12772;49.794;10.024;2022-07-05T03:10:44;19.90;34.00
24636;DHT22;12772;49.794;10.024;2022-07-05T03:14:46;19.90;34.00
24636;DHT22;12772;49.794;10.024;2022-07-05T03:18:48;19.90;34.00
24636;DHT22;12772;49.794;10.024;2022-07-05T03:22:50;19.80;34.30
24636;DHT22;12772;49.794;10.024;2022-07-05T03:26:52;19.90;34.50
24636;DHT22;12772;49.794;10.024;2022-07-05T03:30:54;19.90;34.60
24636;DHT22;12772;49.794;10.024;2022-07-05T03:34:56;19.80;34.70
24636;DHT22;12772;49.794;10.024;2022-07-05T03:38:58;19.80;34.80
24636;DHT22;12772;49.794;10.024;2022-07-05T03:43:00;19.70;35.00
24636;DHT22;12772;49.794;10.024;2022-07-05T03:47:03;19.60;35.00
24636;DHT22;12772;49.794;10.024;2022-07-05T03:51:05;19.60;35.30
24636;DHT22;12772;49.794;10.024;2022-07-05T03:55:07;19.60;35.40
24636;DHT22;12772;49.794;10.024;2022-07-05T03:59:09;19.50;35.30
24636;DHT22;12772;49.794;10.024;2022-07-05T04:03:12;19.50;35.30
24636;DHT22;12772;49.794;10.024;2022-07-05T04:07:14;19.50;35.40
24636;DHT22;12772;49.794;10.024;2022-07-05T04:11:16;19.40;35.50
24636;DHT22;12772;49.794;10.024;2022-07-05T04:15:18;19.30;35.70
24636;DHT22;12772;49.794;10.024;2022-07-05T04:19:20;19.40;36.00
24636;DHT22;12772;49.794;10.024;2022-07-05T04:23:22;19.40;36.00
24636;DHT22;12772;49.794;10.024;2022-07-05T04:27:24;19.40;36.10
24636;DHT22;12772;49.794;10.024;2022-07-05T04:31:26;19.50;36.30
24636;DHT22;12772;49.794;10.024;2022-07-05T04:35:28;19.50;36.50
24636;DHT22;12772;49.794;10.024;2022-07-05T04:39:30;19.60;36.70
24636;DHT22;12772;49.794;10.024;2022-07-05T04:43:32;19.60;36.90
24636;DHT22;12772;49.794;10.024;2022-07-05T04:47:35;19.60;37.00
24636;DHT22;12772;49.794;10.024;2022-07-05T04:51:37;19.60;37.30
24636;DHT22;12772;49.794;10.024;2022-07-05T04:55:39;19.60;37.30
24636;DHT22;12772;49.794;10.024;2022-07-05T04:59:41;19.70;37.40
24636;DHT22;12772;49.794;10.024;2022-07-05T05:03:43;19.70;37.40
24636;DHT22;12772;49.794;10.024;2022-07-05T05:07:45;19.70;37.50
24636;DHT22;12772;49.794;10.024;2022-07-05T05:11:48;19.70;37.60
24636;DHT22;12772;49.794;10.024;2022-07-05T05:15:50;19.70;37.50
24636;DHT22;12772;49.794;10.024;2022-07-05T05:19:52;19.80;37.60
24636;DHT22;12772;49.794;10.024;2022-07-05T05:23:54;19.80;37.20
24636;DHT22;12772;49.794;10.024;2022-07-05T05:27:56;19.90;37.00
24636;DHT22;12772;49.794;10.024;2022-07-05T05:31:58;20.00;36.80
24636;DHT22;12772;49.794;10.024;2022-07-05T05:36:01;20.10;36.40
24636;DHT22;12772;49.794;10.024;2022-07-05T05:40:03;20.20;36.20
24636;DHT22;12772;49.794;10.024;2022-07-05T05:44:05;20.30;35.60
24636;DHT22;12772;49.794;10.024;2022-07-05T05:48:07;20.50;35.40
24636;DHT22;12772;49.794;10.024;2022-07-05T05:52:09;20.60;34.90
24636;DHT22;12772;49.794;10.024;2022-07-05T05:56:12;20.80;35.00
24636;DHT22;12772;49.794;10.024;2022-07-05T06:00:15;20.90;34.70
24636;DHT22;12772;49.794;10.024;2022-07-05T06:04:18;21.10;34.20
24636;DHT22;12772;49.794;10.024;2022-07-05T06:08:20;21.20;33.90
24636;DHT22;12772;49.794;10.024;2022-07-05T06:12:22;21.40;33.70
24636;DHT22;12772;49.794;10.024;2022-07-05T06:16:24;21.60;33.40
24636;DHT22;12772;49.794;10.024;2022-07-05T06:20:28;21.80;33.10
24636;DHT22;12772;49.794;10.024;2022-07-05T06:24:31;21.90;33.00
24636;DHT22;12772;49.794;10.024;2022-07-05T06:28:33;22.10;32.90
24636;DHT22;12772;49.794;10.024;2022-07-05T06:32:35;22.30;32.80
24636;DHT22;12772;49.794;10.024;2022-07-05T06:36:37;22.40;32.30
24636;DHT22;12772;49.794;10.024;2022-07-05T06:40:41;22.50;32.30
24636;DHT22;12772;49.794;10.024;2022-07-05T06:44:44;22.60;32.50
24636;DHT22;12772;49.794;10.024;2022-07-05T06:48:46;22.80;32.50
24636;DHT22;12772;49.794;10.024;2022-07-05T06:52:48;23.00;32.20
24636;DHT22;12772;49.794;10.024;2022-07-05T06:56:50;23.10;31.30
24636;DHT22;12772;49.794;10.024;2022-07-05T07:00:54;23.30;31.50
24636;DHT22;12772;49.794;10.024;2022-07-05T07:04:56;23.50;30.80
24636;DHT22;12772;49.794;10.024;2022-07-05T07:08:58;23.60;30.80
24636;DHT22;12772;49.794;10.024;2022-07-05T07:13:18;23.80;31.10
24636;DHT22;12772;49.794;10.024;2022-07-05T07:17:21;23.90;30.60
24636;DHT22;12772;49.794;10.024;2022-07-05T07:21:23;24.10;28.90
24636;DHT22;12772;49.794;10.024;2022-07-05T07:25:25;24.20;28.90
24636;DHT22;12772;49.794;10.024;2022-07-05T07:29:27;24.30;29.00
24636;DHT22;12772;49.794;10.024;2022-07-05T07:33:31;24.50;29.50
24636;DHT22;12772;49.794;10.024;2022-07-05T07:37:33;24.60;28.70
24636;DHT22;12772;49.794;10.024;2022-07-05T07:41:35;24.80;28.30
24636;DHT22;12772;49.794;10.024;2022-07-05T07:45:38;24.90;28.20
24636;DHT22;12772;49.794;10.024;2022-07-05T07:49:40;25.00;28.00
24636;DHT22;12772;49.794;10.024;2022-07-05T07:53:42;25.20;28.00
24636;DHT22;12772;49.794;10.024;2022-07-05T07:57:44;25.40;28.00
24636;DHT22;12772;49.794;10.024;2022-07-05T08:01:46;25.50;27.30
24636;DHT22;12772;49.794;10.024;2022-07-05T08:05:48;25.70;27.20
24636;DHT22;12772;49.794;10.024;2022-07-05T08:09:51;25.90;26.80
24636;DHT22;12772;49.794;10.024;2022-07-05T08:13:53;26.00;26.80
24636;DHT22;12772;49.794;10.024;2022-07-05T08:17:56;26.10;26.70
24636;DHT22;12772;49.794;10.024;2022-07-05T08:22:16;26.20;26.30
24636;DHT22;12772;49.794;10.024;2022-07-05T08:26:20;26.30;26.10
24636;DHT22;12772;49.794;10.024;2022-07-05T08:30:22;26.50;26.00
24636;DHT22;12772;49.794;10.024;2022-07-05T08:34:24;26.60;25.80
24636;DHT22;12772;49.794;10.024;2022-07-05T08:38:27;26.80;25.70
24636;DHT22;12772;49.794;10.024;2022-07-05T08:42:29;26.90;25.20
24636;DHT22;12772;49.794;10.024;2022-07-05T08:46:32;27.10;25.30
24636;DHT22;12772;49.794;10.024;2022-07-05T08:50:37;27.30;25.30
24636;DHT22;12772;49.794;10.024;2022-07-05T08:54:39;27.50;24.20
24636;DHT22;12772;49.794;10.024;2022-07-05T08:58:41;27.60;23.90
24636;DHT22;12772;49.794;10.024;2022-07-05T09:02:43;27.70;22.80
24636;DHT22;12772;49.794;10.024;2022-07-05T09:06:47;27.70;22.10
24636;DHT22;12772;49.794;10.024;2022-07-05T09:10:50;27.80;22.80
24636;DHT22;12772;49.794;10.024;2022-07-05T09:14:55;27.90;23.00
24636;DHT22;12772;49.794;10.024;2022-07-05T09:19:06;28.00;22.70
24636;DHT22;12772;49.794;10.024;2022-07-05T09:23:08;28.10;22.60
24636;DHT22;12772;49.794;10.024;2022-07-05T09:27:14;28.10;22.40
24636;DHT22;12772;49.794;10.024;2022-07-05T09:31:31;28.00;22.30
24636;DHT22;12772;49.794;10.024;2022-07-05T09:35:35;27.80;22.70
24636;DHT22;12772;49.794;10.024;2022-07-05T09:39:39;27.70;23.10
24636;DHT22;12772;49.794;10.024;2022-07-05T09:43:41;27.70;23.20
24636;DHT22;12772;49.794;10.024;2022-07-05T09:47:43;27.80;22.20
24636;DHT22;12772;49.794;10.024;2022-07-05T09:51:48;27.80;22.20
24636;DHT22;12772;49.794;10.024;2022-07-05T09:56:01;27.70;22.10
24636;DHT22;12772;49.794;10.024;2022-07-05T10:00:04;27.80;22.20
24636;DHT22;12772;49.794;10.024;2022-07-05T10:04:08;27.90;22.20
24636;DHT22;12772;49.794;10.024;2022-07-05T10:08:12;28.10;22.40
24636;DHT22;12772;49.794;10.024;2022-07-05T10:12:15;28.30;21.80
24636;DHT22;12772;49.794;10.024;2022-07-05T10:16:19;28.50;21.00
24636;DHT22;12772;49.794;10.024;2022-07-05T10:20:29;28.60;21.00
24636;DHT22;12772;49.794;10.024;2022-07-05T10:24:34;28.60;20.90
24636;DHT22;12772;49.794;10.024;2022-07-05T10:28:39;28.80;20.80
24636;DHT22;12772;49.794;10.024;2022-07-05T10:32:42;29.00;20.50
24636;DHT22;12772;49.794;10.024;2022-07-05T10:36:44;29.10;20.20
24636;DHT22;12772;49.794;10.024;2022-07-05T10:40:49;29.30;20.00
24636;DHT22;12772;49.794;10.024;2022-07-05T10:44:52;29.40;19.80
24636;DHT22;12772;49.794;10.024;2022-07-05T10:49:11;29.30;19.80
24636;DHT22;12772;49.794;10.024;2022-07-05T10:53:13;29.20;19.80
24636;DHT22;12772;49.794;10.024;2022-07-05T10:57:25;29.00;19.70
24636;DHT22;12772;49.794;10.024;2022-07-05T11:05:29;28.90;20.20
24636;DHT22;12772;49.794;10.024;2022-07-05T11:09:32;29.10;20.60
24636;DHT22;12772;49.794;10.024;2022-07-05T11:13:41;29.20;20.30
24636;DHT22;12772;49.794;10.024;2022-07-05T11:17:44;29.30;20.00
24636;DHT22;12772;49.794;10.024;2022-07-05T11:26:04;29.30;20.50
24636;DHT22;12772;49.794;10.024;2022-07-05T11:30:23;29.40;19.70
24636;DHT22;12772;49.794;10.024;2022-07-05T11:34:33;29.70;19.20
24636;DHT22;12772;49.794;10.024;2022-07-05T11:39:11;29.90;18.70
24636;DHT22;12772;49.794;10.024;2022-07-05T11:43:26;30.10;18.60
24636;DHT22;12772;49.794;10.024;2022-07-05T11:47:29;30.10;18.70
24636;DHT22;12772;49.794;10.024;2022-07-05T11:51:32;30.10;19.00
24636;DHT22;12772;49.794;10.024;2022-07-05T11:55:34;29.90;18.90
24636;DHT22;12772;49.794;10.024;2022-07-05T11:59:36;29.80;19.70
24636;DHT22;12772;49.794;10.024;2022-07-05T12:03:38;29.80;19.20
24636;DHT22;12772;49.794;10.024;2022-07-05T12:07:52;29.70;18.80
24636;DHT22;12772;49.794;10.024;2022-07-05T12:11:55;29.70;18.60
24636;DHT22;12772;49.794;10.024;2022-07-05T12:16:15;29.60;18.80
24636;DHT22;12772;49.794;10.024;2022-07-05T12:20:22;29.80;18.70
24636;DHT22;12772;49.794;10.024;2022-07-05T12:24:24;30.10;17.70
24636;DHT22;12772;49.794;10.024;2022-07-05T12:28:26;30.20;17.70
24636;DHT22;12772;49.794;10.024;2022-07-05T12:32:29;30.20;17.50
24636;DHT22;12772;49.794;10.024;2022-07-05T12:36:31;30.10;17.70
24636;DHT22;12772;49.794;10.024;2022-07-05T12:40:38;29.90;17.60
24636;DHT22;12772;49.794;10.024;2022-07-05T12:44:41;29.80;17.50
24636;DHT22;12772;49.794;10.024;2022-07-05T12:48:43;29.90;17.60
24636;DHT22;12772;49.794;10.024;2022-07-05T12:53:12;30.10;17.70
24636;DHT22;12772;49.794;10.024;2022-07-05T12:57:31;30.40;17.30
24636;DHT22;12772;49.794;10.024;2022-07-05T13:01:51;30.50;17.20
24636;DHT22;12772;49.794;10.024;2022-07-05T13:06:01;30.70;16.20
24636;DHT22;12772;49.794;10.024;2022-07-05T13:10:17;30.80;15.10
24636;DHT22;12772;49.794;10.024;2022-07-05T13:14:19;30.90;15.60
24636;DHT22;12772;49.794;10.024;2022-07-05T13:18:25;31.00;16.10
24636;DHT22;12772;49.794;10.024;2022-07-05T13:22:27;31.30;15.40
24636;DHT22;12772;49.794;10.024;2022-07-05T13:26:33;31.40;15.20
24636;DHT22;12772;49.794;10.024;2022-07-05T13:30:39;31.50;14.70
24636;DHT22;12772;49.794;10.024;2022-07-05T13:34:41;31.50;14.70
24636;DHT22;12772;49.794;10.024;2022-07-05T13:38:43;31.60;14.90
24636;DHT22;12772;49.794;10.024;2022-07-05T13:42:45;31.60;14.40
24636;DHT22;12772;49.794;10.024;2022-07-05T13:46:48;31.60;14.60
24636;DHT22;12772;49.794;10.024;2022-07-05T13:50:50;31.50;14.40
24636;DHT22;12772;49.794;10.024;2022-07-05T13:54:52;31.50;14.90
24636;DHT22;12772;49.794;10.024;2022-07-05T13:58:54;31.50;15.00
24636;DHT22;12772;49.794;10.024;2022-07-05T14:02:57;31.50;15.00
24636;DHT22;12772;49.794;10.024;2022-07-05T14:06:59;31.50;15.20
24636;DHT22;12772;49.794;10.024;2022-07-05T14:11:01;31.60;15.10
24636;DHT22;12772;49.794;10.024;2022-07-05T14:15:03;31.60;14.80
24636;DHT22;12772;49.794;10.024;2022-07-05T14:19:05;31.50;14.80
24636;DHT22;12772;49.794;10.024;2022-07-05T14:23:08;31.50;14.90
24636;DHT22;12772;49.794;10.024;2022-07-05T14:27:11;31.50;14.70
24636;DHT22;12772;49.794;10.024;2022-07-05T14:31:13;31.50;13.70
24636;DHT22;12772;49.794;10.024;2022-07-05T14:35:16;31.50;13.60
24636;DHT22;12772;49.794;10.024;2022-07-05T14:39:18;31.50;14.20
24636;DHT22;12772;49.794;10.024;2022-07-05T14:43:20;31.50;14.90
24636;DHT22;12772;49.794;10.024;2022-07-05T14:47:22;31.50;15.10
24636;DHT22;12772;49.794;10.024;2022-07-05T14:51:27;31.60;14.80
24636;DHT22;12772;49.794;10.024;2022-07-05T14:55:29;31.60;14.80
24636;DHT22;12772;49.794;10.024;2022-07-05T14:59:31;31.50;14.90
24636;DHT22;12772;49.794;10.024;2022-07-05T15:03:33;31.40;15.40
24636;DHT22;12772;49.794;10.024;2022-07-05T15:07:35;31.40;14.60
24636;DHT22;12772;49.794;10.024;2022-07-05T15:11:37;31.30;14.90
24636;DHT22;12772;49.794;10.024;2022-07-05T15:15:40;31.30;15.20
24636;DHT22;12772;49.794;10.024;2022-07-05T15:19:42;31.20;14.70
24636;DHT22;12772;49.794;10.024;2022-07-05T15:23:44;31.10;15.00
24636;DHT22;12772;49.794;10.024;2022-07-05T15:27:46;31.10;15.60
24636;DHT22;12772;49.794;10.024;2022-07-05T15:31:48;31.10;15.20
24636;DHT22;12772;49.794;10.024;2022-07-05T15:35:50;31.00;14.90
24636;DHT22;12772;49.794;10.024;2022-07-05T15:39:53;30.90;15.10
24636;DHT22;12772;49.794;10.024;2022-07-05T15:43:58;30.70;15.40
24636;DHT22;12772;49.794;10.024;2022-07-05T15:48:00;30.60;15.90
24636;DHT22;12772;49.794;10.024;2022-07-05T15:52:03;30.60;16.50
24636;DHT22;12772;49.794;10.024;2022-07-05T15:56:05;30.50;16.50
24636;DHT22;12772;49.794;10.024;2022-07-05T16:00:08;30.50;16.90
24636;DHT22;12772;49.794;10.024;2022-07-05T16:04:10;30.60;16.40
24636;DHT22;12772;49.794;10.024;2022-07-05T16:08:12;30.60;16.20
24636;DHT22;12772;49.794;10.024;2022-07-05T16:12:17;30.50;16.40
24636;DHT22;12772;49.794;10.024;2022-07-05T16:16:19;30.50;16.50
24636;DHT22;12772;49.794;10.024;2022-07-05T16:20:21;30.50;16.70
24636;DHT22;12772;49.794;10.024;2022-07-05T16:24:23;30.50;16.70
24636;DHT22;12772;49.794;10.024;2022-07-05T16:28:29;30.40;16.10
24636;DHT22;12772;49.794;10.024;2022-07-05T16:32:32;30.40;15.60
24636;DHT22;12772;49.794;10.024;2022-07-05T16:36:37;30.30;15.90
24636;DHT22;12772;49.794;10.024;2022-07-05T16:40:40;30.30;15.30
24636;DHT22;12772;49.794;10.024;2022-07-05T16:44:42;30.20;16.40
24636;DHT22;12772;49.794;10.024;2022-07-05T16:48:46;30.10;16.00
24636;DHT22;12772;49.794;10.024;2022-07-05T16:52:48;30.10;15.90
24636;DHT22;12772;49.794;10.024;2022-07-05T16:56:50;30.10;16.00
24636;DHT22;12772;49.794;10.024;2022-07-05T17:00:54;30.00;16.30
24636;DHT22;12772;49.794;10.024;2022-07-05T17:04:55;29.90;16.40
24636;DHT22;12772;49.794;10.024;2022-07-05T17:08:57;29.80;16.70
24636;DHT22;12772;49.794;10.024;2022-07-05T17:13:00;29.70;16.90
24636;DHT22;12772;49.794;10.024;2022-07-05T17:17:02;29.50;17.30
24636;DHT22;12772;49.794;10.024;2022-07-05T17:21:05;29.50;17.30
24636;DHT22;12772;49.794;10.024;2022-07-05T17:25:08;29.40;17.20
24636;DHT22;12772;49.794;10.024;2022-07-05T17:29:10;29.40;17.20
24636;DHT22;12772;49.794;10.024;2022-07-05T17:33:12;29.40;17.20
24636;DHT22;12772;49.794;10.024;2022-07-05T17:37:14;29.30;17.10
24636;DHT22;12772;49.794;10.024;2022-07-05T17:41:17;29.30;17.40
24636;DHT22;12772;49.794;10.024;2022-07-05T17:45:20;29.20;17.60
24636;DHT22;12772;49.794;10.024;2022-07-05T17:49:22;29.20;18.00
24636;DHT22;12772;49.794;10.024;2022-07-05T17:53:24;29.20;17.50
24636;DHT22;12772;49.794;10.024;2022-07-05T17:57:26;29.00;17.60
24636;DHT22;12772;49.794;10.024;2022-07-05T18:01:28;29.00;17.80
24636;DHT22;12772;49.794;10.024;2022-07-05T18:05:30;29.00;18.00
24636;DHT22;12772;49.794;10.024;2022-07-05T18:09:32;28.90;18.00
24636;DHT22;12772;49.794;10.024;2022-07-05T18:13:34;28.80;18.10
24636;DHT22;12772;49.794;10.024;2022-07-05T18:17:36;28.80;18.30
24636;DHT22;12772;49.794;10.024;2022-07-05T18:21:38;28.70;18.40
24636;DHT22;12772;49.794;10.024;2022-07-05T18:25:40;28.60;18.70
24636;DHT22;12772;49.794;10.024;2022-07-05T18:29:43;28.60;19.00
24636;DHT22;12772;49.794;10.024;2022-07-05T18:33:45;28.50;19.00
24636;DHT22;12772;49.794;10.024;2022-07-05T18:37:48;28.50;19.20
24636;DHT22;12772;49.794;10.024;2022-07-05T18:41:50;28.50;19.40
24636;DHT22;12772;49.794;10.024;2022-07-05T18:45:52;28.40;19.40
24636;DHT22;12772;49.794;10.024;2022-07-05T18:49:54;28.30;19.70
24636;DHT22;12772;49.794;10.024;2022-07-05T18:53:56;28.20;19.70
24636;DHT22;12772;49.794;10.024;2022-07-05T18:57:58;28.10;19.80
24636;DHT22;12772;49.794;10.024;2022-07-05T19:02:00;28.00;20.10
24636;DHT22;12772;49.794;10.024;2022-07-05T19:06:02;27.90;20.30
24636;DHT22;12772;49.794;10.024;2022-07-05T19:10:22;27.90;20.50
24636;DHT22;12772;49.794;10.024;2022-07-05T19:14:42;27.80;20.70
24636;DHT22;12772;49.794;10.024;2022-07-05T19:18:44;27.70;20.80
24636;DHT22;12772;49.794;10.024;2022-07-05T19:22:46;27.60;20.90
24636;DHT22;12772;49.794;10.024;2022-07-05T19:26:49;27.50;21.30
24636;DHT22;12772;49.794;10.024;2022-07-05T19:30:51;27.40;21.60
24636;DHT22;12772;49.794;10.024;2022-07-05T19:34:53;27.30;21.80
24636;DHT22;12772;49.794;10.024;2022-07-05T19:38:57;27.20;21.80
24636;DHT22;12772;49.794;10.024;2022-07-05T19:42:59;27.10;21.70
24636;DHT22;12772;49.794;10.024;2022-07-05T19:47:02;26.90;21.60
24636;DHT22;12772;49.794;10.024;2022-07-05T19:51:04;26.70;21.40
24636;DHT22;12772;49.794;10.024;2022-07-05T19:55:07;26.50;21.30
24636;DHT22;12772;49.794;10.024;2022-07-05T19:59:09;26.40;21.20
24636;DHT22;12772;49.794;10.024;2022-07-05T20:03:11;26.20;21.50
24636;DHT22;12772;49.794;10.024;2022-07-05T20:07:13;26.00;21.90
24636;DHT22;12772;49.794;10.024;2022-07-05T20:11:16;25.90;22.00
24636;DHT22;12772;49.794;10.024;2022-07-05T20:15:18;25.80;22.10
24636;DHT22;12772;49.794;10.024;2022-07-05T20:19:20;25.70;22.40
24636;DHT22;12772;49.794;10.024;2022-07-05T20:23:22;25.70;22.60
24636;DHT22;12772;49.794;10.024;2022-07-05T20:27:24;25.60;22.50
24636;DHT22;12772;49.794;10.024;2022-07-05T20:31:26;25.50;22.80
24636;DHT22;12772;49.794;10.024;2022-07-05T20:35:28;25.40;22.70
24636;DHT22;12772;49.794;10.024;2022-07-05T20:39:30;25.40;22.90
24636;DHT22;12772;49.794;10.024;2022-07-05T20:43:33;25.30;23.20
24636;DHT22;12772;49.794;10.024;2022-07-05T20:47:35;25.30;23.00
24636;DHT22;12772;49.794;10.024;2022-07-05T20:51:37;25.10;23.40
24636;DHT22;12772;49.794;10.024;2022-07-05T20:55:39;25.00;23.50
24636;DHT22;12772;49.794;10.024;2022-07-05T20:59:41;24.90;23.60
24636;DHT22;12772;49.794;10.024;2022-07-05T21:03:43;24.80;23.80
24636;DHT22;12772;49.794;10.024;2022-07-05T21:07:45;24.70;24.00
24636;DHT22;12772;49.794;10.024;2022-07-05T21:11:47;24.60;23.90
24636;DHT22;12772;49.794;10.024;2022-07-05T21:15:49;24.50;24.20
24636;DHT22;12772;49.794;10.024;2022-07-05T21:19:51;24.40;24.30
24636;DHT22;12772;49.794;10.024;2022-07-05T21:23:53;24.40;24.60
24636;DHT22;12772;49.794;10.024;2022-07-05T21:27:55;24.30;24.60
24636;DHT22;12772;49.794;10.024;2022-07-05T21:31:57;24.30;24.90
24636;DHT22;12772;49.794;10.024;2022-07-05T21:35:59;24.20;24.90
24636;DHT22;12772;49.794;10.024;2022-07-05T21:40:02;24.20;24.90
24636;DHT22;12772;49.794;10.024;2022-07-05T21:44:05;24.20;24.90
24636;DHT22;12772;49.794;10.024;2022-07-05T21:48:07;24.10;25.10
24636;DHT22;12772;49.794;10.024;2022-07-05T21:52:10;24.10;25.40
24636;DHT22;12772;49.794;10.024;2022-07-05T21:56:12;24.00;25.30
24636;DHT22;12772;49.794;10.024;2022-07-05T22:00:20;24.00;25.30
24636;DHT22;12772;49.794;10.024;2022-07-05T22:04:40;23.90;25.20
24636;DHT22;12772;49.794;10.024;2022-07-05T22:08:44;23.80;25.20
24636;DHT22;12772;49.794;10.024;2022-07-05T22:12:46;23.70;25.40
24636;DHT22;12772;49.794;10.024;2022-07-05T22:16:48;23.60;25.60
24636;DHT22;12772;49.794;10.024;2022-07-05T22:20:50;23.60;25.90
24636;DHT22;12772;49.794;10.024;2022-07-05T22:24:52;23.50;26.00
24636;DHT22;12772;49.794;10.024;2022-07-05T22:28:55;23.50;26.20
24636;DHT22;12772;49.794;10.024;2022-07-05T22:32:57;23.30;26.40
24636;DHT22;12772;49.794;10.024;2022-07-05T22:36:59;23.20;26.70
24636;DHT22;12772;49.794;10.024;2022-07-05T22:41:01;23.10;26.80
24636;DHT22;12772;49.794;10.024;2022-07-05T22:45:04;23.10;27.00
24636;DHT22;12772;49.794;10.024;2022-07-05T22:49:06;23.20;27.10
24636;DHT22;12772;49.794;10.024;2022-07-05T22:53:08;23.20;27.10
24636;DHT22;12772;49.794;10.024;2022-07-05T22:57:10;23.20;27.10
24636;DHT22;12772;49.794;10.024;2022-07-05T23:01:13;23.20;27.20
24636;DHT22;12772;49.794;10.024;2022-07-05T23:05:16;23.10;27.30
24636;DHT22;12772;49.794;10.024;2022-07-05T23:09:18;23.10;27.40
24636;DHT22;12772;49.794;10.024;2022-07-05T23:13:20;23.10;27.40
24636;DHT22;12772;49.794;10.024;2022-07-05T23:17:22;23.00;27.50
24636;DHT22;12772;49.794;10.024;2022-07-05T23:21:25;23.00;27.80
24636;DHT22;12772;49.794;10.024;2022-07-05T23:25:27;23.00;28.00
24636;DHT22;12772;49.794;10.024;2022-07-05T23:29:29;23.00;28.00
24636;DHT22;12772;49.794;10.024;2022-07-05T23:33:31;23.00;27.90
24636;DHT22;12772;49.794;10.024;2022-07-05T23:37:33;23.00;28.10
24636;DHT22;12772;49.794;10.024;2022-07-05T23:41:35;23.00;28.00
24636;DHT22;12772;49.794;10.024;2022-07-05T23:45:37;23.00;28.00
24636;DHT22;12772;49.794;10.024;2022-07-05T23:49:40;23.00;28.10
24636;DHT22;12772;49.794;10.024;2022-07-05T23:53:42;23.00;28.30
24636;DHT22;12772;49.794;10.024;2022-07-05T23:57:44;23.00;28.50
